createdAt,value
2018-02-09T00:01:28.700Z,28.27
2018-02-09T00:03:55.426Z,28.50
2018-02-09T00:06:22.154Z,27.97
2018-02-09T00:08:48.849Z,28.90
2018-02-09T00:11:15.608Z,27.97
2018-02-09T00:13:42.341Z,28.63
2018-02-09T00:16:09.068Z,26.73
2018-02-09T00:18:35.790Z,29.80
2018-02-09T00:21:02.497Z,27.33
2018-02-09T00:23:29.228Z,29.63
2018-02-09T00:25:55.944Z,28.10
2018-02-09T00:28:22.673Z,28.13
2018-02-09T00:30:49.397Z,27.50
2018-02-09T00:33:16.114Z,27.80
2018-02-09T00:35:42.837Z,26.77
2018-02-09T00:38:09.546Z,26.57
2018-02-09T00:40:36.276Z,26.57
2018-02-09T00:43:03.005Z,27.93
2018-02-09T00:45:29.706Z,29.10
2018-02-09T00:47:56.425Z,27.37
2018-02-09T00:50:23.174Z,24.97
2018-02-09T00:52:49.885Z,25.83
2018-02-09T00:55:16.693Z,25.57
2018-02-09T00:57:43.416Z,25.30
2018-02-09T01:00:10.173Z,27.30
2018-02-09T01:02:36.898Z,26.37
2018-02-09T01:05:03.626Z,25.43
2018-02-09T01:07:30.349Z,26.03
2018-02-09T01:09:57.066Z,29.13
2018-02-09T01:12:23.793Z,27.67
2018-02-09T01:14:50.525Z,27.80
2018-02-09T01:17:17.245Z,27.03
2018-02-09T01:19:43.949Z,29.20
2018-02-09T01:22:10.709Z,31.20
2018-02-09T01:24:37.426Z,27.50
2018-02-09T01:27:04.150Z,28.17
2018-02-09T01:29:30.878Z,27.30
2018-02-09T01:31:57.587Z,27.70
2018-02-09T01:34:24.317Z,28.60
2018-02-09T01:36:51.058Z,26.03
2018-02-09T01:39:17.785Z,28.37
2018-02-09T01:41:44.546Z,28.20
2018-02-09T01:44:11.260Z,28.27
2018-02-09T01:46:37.994Z,26.97
2018-02-09T01:49:04.726Z,28.40
2018-02-09T01:51:31.449Z,28.40
2018-02-09T01:53:58.182Z,27.33
2018-02-09T01:56:24.901Z,28.30
2018-02-09T01:58:51.626Z,25.97
2018-02-09T02:01:18.378Z,28.20
2018-02-09T02:03:45.112Z,26.70
2018-02-09T02:06:11.867Z,26.13
2018-02-09T02:08:38.572Z,27.80
2018-02-09T02:11:05.310Z,27.20
2018-02-09T02:13:32.018Z,26.47
2018-02-09T02:15:58.734Z,26.23
2018-02-09T02:18:25.434Z,24.47
2018-02-09T02:20:52.138Z,25.87
2018-02-09T02:23:18.894Z,28.07
2018-02-09T02:25:45.604Z,25.30
2018-02-09T02:28:12.326Z,26.07
2018-02-09T02:30:39.082Z,27.37
2018-02-09T02:33:05.782Z,29.55
2018-02-09T02:35:32.497Z,26.53
2018-02-09T02:37:59.214Z,27.27
2018-02-09T02:40:25.951Z,25.93
2018-02-09T02:42:52.645Z,25.73
2018-02-09T02:45:19.341Z,25.73
2018-02-09T02:47:46.058Z,25.53
2018-02-09T02:50:12.761Z,25.03
2018-02-09T02:52:39.471Z,26.77
2018-02-09T02:55:06.205Z,26.30
2018-02-09T02:57:32.911Z,28.00
2018-02-09T02:59:59.610Z,23.67
2018-02-09T03:02:26.343Z,26.30
2018-02-09T03:04:53.083Z,25.17
2018-02-09T03:07:19.804Z,24.77
2018-02-09T03:09:46.524Z,24.43
2018-02-09T03:12:13.255Z,25.27
2018-02-09T03:14:39.972Z,25.43
2018-02-09T03:17:06.674Z,26.60
2018-02-09T03:19:33.417Z,27.50
2018-02-09T03:22:00.128Z,26.30
2018-02-09T03:24:26.833Z,25.97
2018-02-09T03:26:53.605Z,27.63
2018-02-09T03:29:20.313Z,28.90
2018-02-09T03:31:47.032Z,26.47
2018-02-09T03:34:13.756Z,27.63
2018-02-09T03:36:40.460Z,27.23
2018-02-09T03:39:07.181Z,29.67
2018-02-09T03:41:33.878Z,28.07
2018-02-09T03:44:00.615Z,29.10
2018-02-09T03:46:27.313Z,27.33
2018-02-09T03:48:54.051Z,28.40
2018-02-09T03:51:20.781Z,28.00
2018-02-09T03:53:47.477Z,26.30
2018-02-09T03:56:14.226Z,27.37
2018-02-09T03:58:40.944Z,25.17
2018-02-09T04:01:07.651Z,27.10
2018-02-09T04:03:34.400Z,27.17
2018-02-09T04:06:01.104Z,26.63
2018-02-09T04:08:27.815Z,28.17
2018-02-09T04:10:54.551Z,27.53
2018-02-09T04:13:21.279Z,25.03
2018-02-09T04:15:47.982Z,28.60
2018-02-09T04:18:14.722Z,25.93
2018-02-09T04:20:41.463Z,28.93
2018-02-09T04:23:08.167Z,27.83
2018-02-09T04:25:34.889Z,31.10
2018-02-09T04:28:01.600Z,27.13
2018-02-09T04:30:28.343Z,28.10
2018-02-09T04:32:55.059Z,29.60
2018-02-09T04:35:21.762Z,28.80
2018-02-09T04:37:48.490Z,29.80
2018-02-09T04:40:15.202Z,27.20
2018-02-09T04:42:41.934Z,28.87
2018-02-09T04:45:08.644Z,29.87
2018-02-09T04:47:35.356Z,26.10
2018-02-09T04:50:02.098Z,28.90
2018-02-09T04:52:28.819Z,27.90
2018-02-09T04:54:55.547Z,28.47
2018-02-09T04:57:22.295Z,29.50
2018-02-09T04:59:49.001Z,28.93
2018-02-09T05:02:15.746Z,29.77
2018-02-09T05:04:42.554Z,26.60
2018-02-09T05:07:09.302Z,31.03
2018-02-09T05:09:36.011Z,33.57
2018-02-09T05:12:02.713Z,33.70
2018-02-09T05:14:29.526Z,31.63
2018-02-09T05:16:56.249Z,30.30
2018-02-09T05:19:22.970Z,28.97
2018-02-09T05:21:49.684Z,28.20
2018-02-09T05:24:16.380Z,28.90
2018-02-09T05:26:43.109Z,27.60
2018-02-09T05:29:09.835Z,29.03
2018-02-09T05:31:36.542Z,27.87
2018-02-09T05:34:03.265Z,27.33
2018-02-09T05:36:29.972Z,28.97
2018-02-09T05:38:56.697Z,28.77
2018-02-09T05:41:23.402Z,27.70
2018-02-09T05:43:50.145Z,29.47
2018-02-09T05:46:16.879Z,27.83
2018-02-09T05:48:43.594Z,29.33
2018-02-09T05:51:10.367Z,29.03
2018-02-09T05:53:37.068Z,27.47
2018-02-09T05:56:03.814Z,30.07
2018-02-09T05:58:30.529Z,26.60
2018-02-09T06:00:57.225Z,30.40
2018-02-09T06:03:23.962Z,28.97
2018-02-09T06:05:50.666Z,28.37
2018-02-09T06:08:17.417Z,32.93
2018-02-09T06:10:44.149Z,31.37
2018-02-09T06:13:10.894Z,32.10
2018-02-09T06:15:37.616Z,31.50
2018-02-09T06:18:04.327Z,35.10
2018-02-09T06:20:31.069Z,33.10
2018-02-09T06:22:57.787Z,29.13
2018-02-09T06:25:24.493Z,33.50
2018-02-09T06:27:51.233Z,30.37
2018-02-09T06:30:18.041Z,29.10
2018-02-09T06:32:44.742Z,30.27
2018-02-09T06:35:11.521Z,37.67
2018-02-09T06:37:38.238Z,39.83
2018-02-09T06:40:04.966Z,45.20
2018-02-09T06:42:31.707Z,40.80
2018-02-09T06:44:58.423Z,43.90
2018-02-09T06:47:25.211Z,47.30
2018-02-09T06:49:51.942Z,46.27
2018-02-09T06:52:18.670Z,50.57
2018-02-09T06:54:45.406Z,48.13
2018-02-09T06:57:12.114Z,50.70
2018-02-09T06:59:38.829Z,49.03
2018-02-09T07:02:05.562Z,47.57
2018-02-09T07:04:32.280Z,46.90
2018-02-09T07:06:59.028Z,51.30
2018-02-09T07:09:25.745Z,49.40
2018-02-09T07:11:52.452Z,51.10
2018-02-09T07:14:19.202Z,49.17
2018-02-09T07:16:45.900Z,49.33
2018-02-09T07:19:12.653Z,51.00
2018-02-09T07:21:39.376Z,50.60
2018-02-09T07:24:06.089Z,50.87
2018-02-09T07:26:32.816Z,53.57
2018-02-09T07:28:59.552Z,49.53
2018-02-09T07:31:26.275Z,52.17
2018-02-09T07:33:52.988Z,48.57
2018-02-09T07:36:19.697Z,50.43
2018-02-09T07:38:46.426Z,49.30
2018-02-09T07:41:13.138Z,50.23
2018-02-09T07:43:39.863Z,50.00
2018-02-09T07:46:06.574Z,48.10
2018-02-09T07:48:33.290Z,48.27
2018-02-09T07:51:00.094Z,49.00
2018-02-09T07:53:26.798Z,47.47
2018-02-09T07:55:53.527Z,49.97
2018-02-09T07:58:20.304Z,49.10
2018-02-09T08:00:47.014Z,51.20
2018-02-09T08:03:13.771Z,49.00
2018-02-09T08:05:40.493Z,53.23
2018-02-09T08:08:07.224Z,52.10
2018-02-09T08:10:33.965Z,50.17
2018-02-09T08:13:00.723Z,53.50
2018-02-09T08:15:27.465Z,51.57
2018-02-09T08:17:54.202Z,49.90
2018-02-09T08:20:20.902Z,51.30
2018-02-09T08:22:47.647Z,47.97
2018-02-09T08:25:14.387Z,48.07
2018-02-09T08:27:41.092Z,46.13
2018-02-09T08:30:07.798Z,48.83
2018-02-09T08:32:37.480Z,51.97
2018-02-09T08:35:10.645Z,50.80
2018-02-09T08:37:38.073Z,48.03
2018-02-09T08:40:05.344Z,51.70
2018-02-09T08:42:38.071Z,48.83
2018-02-09T08:45:05.279Z,49.90
2018-02-09T08:47:31.986Z,49.70
2018-02-09T08:49:58.724Z,46.93
2018-02-09T08:52:25.454Z,50.03
2018-02-09T08:54:52.163Z,49.03
2018-02-09T08:57:18.901Z,50.20
2018-02-09T08:59:45.717Z,48.53
2018-02-09T09:02:12.460Z,47.53
2018-02-09T09:04:39.169Z,51.07
2018-02-09T09:07:05.877Z,51.13
2018-02-09T09:09:32.634Z,48.73
2018-02-09T09:11:59.373Z,50.13
2018-02-09T09:14:26.106Z,51.07
2018-02-09T09:16:52.854Z,51.40
2018-02-09T09:19:19.582Z,47.80
2018-02-09T09:21:46.342Z,47.63
2018-02-09T09:24:13.082Z,52.50
2018-02-09T09:26:39.836Z,49.83
2018-02-09T09:29:06.601Z,47.00
2018-02-09T09:31:33.318Z,49.10
2018-02-09T09:34:00.055Z,45.87
2018-02-09T09:36:26.887Z,49.57
2018-02-09T09:38:53.614Z,49.60
2018-02-09T09:41:20.349Z,47.70
2018-02-09T09:43:47.093Z,47.83
2018-02-09T09:46:13.825Z,45.30
2018-02-09T09:48:40.616Z,44.60
2018-02-09T09:51:07.457Z,44.67
2018-02-09T09:53:34.191Z,44.90
2018-02-09T09:56:00.945Z,49.00
2018-02-09T09:58:27.707Z,45.70
2018-02-09T10:00:54.436Z,45.00
2018-02-09T10:03:21.161Z,44.97
2018-02-09T10:05:47.886Z,44.40
2018-02-09T10:08:14.650Z,46.57
2018-02-09T10:10:41.376Z,45.90
2018-02-09T10:13:08.126Z,47.07
2018-02-09T10:15:34.868Z,46.37
2018-02-09T10:18:01.562Z,46.57
2018-02-09T10:20:28.277Z,44.70
2018-02-09T10:22:55.022Z,47.40
2018-02-09T10:25:21.775Z,45.97
2018-02-09T10:27:48.517Z,42.90
2018-02-09T10:30:15.248Z,49.03
2018-02-09T10:32:41.957Z,45.37
2018-02-09T10:35:08.692Z,43.93
2018-02-09T10:37:35.552Z,45.93
2018-02-09T10:40:03.202Z,45.40
2018-02-09T10:42:29.925Z,45.00
2018-02-09T10:44:56.759Z,44.00
2018-02-09T10:47:23.570Z,46.70
2018-02-09T10:49:50.289Z,41.20
2018-02-09T10:52:17.041Z,42.80
2018-02-09T10:54:43.785Z,45.43
2018-02-09T10:57:10.574Z,44.30
2018-02-09T10:59:37.332Z,41.77
2018-02-09T11:02:04.049Z,42.37
2018-02-09T11:04:30.775Z,43.67
2018-02-09T11:06:57.518Z,43.90
2018-02-09T11:09:29.862Z,43.97
2018-02-09T11:11:58.584Z,46.80
2018-02-09T11:14:25.321Z,49.13
2018-02-09T11:16:52.088Z,49.27
2018-02-09T11:19:18.825Z,48.60
2018-02-09T11:21:45.606Z,47.30
2018-02-09T11:24:12.337Z,48.37
2018-02-09T11:26:39.047Z,50.37
2018-02-09T11:29:05.807Z,52.53
2018-02-09T11:31:32.546Z,48.20
2018-02-09T11:33:59.322Z,46.67
2018-02-09T11:36:26.078Z,46.80
2018-02-09T11:38:52.877Z,50.37
2018-02-09T11:41:19.641Z,50.83
2018-02-09T11:43:46.386Z,50.73
2018-02-09T11:46:13.103Z,51.10
2018-02-09T11:48:39.864Z,53.17
2018-02-09T11:51:06.585Z,50.70
2018-02-09T11:53:33.340Z,50.63
2018-02-09T11:56:00.054Z,52.50
2018-02-09T11:58:26.812Z,46.27
2018-02-09T12:00:54.889Z,46.27
2018-02-09T12:03:21.618Z,50.63
2018-02-09T12:05:48.386Z,49.20
2018-02-09T12:08:15.149Z,48.13
2018-02-09T12:10:41.941Z,51.87
2018-02-09T12:13:08.712Z,48.43
2018-02-09T12:15:35.466Z,45.00
2018-02-09T12:18:02.204Z,47.10
2018-02-09T12:20:28.958Z,48.73
2018-02-09T12:22:55.669Z,47.27
2018-02-09T12:25:22.423Z,50.37
2018-02-09T12:27:49.215Z,52.30
2018-02-09T12:30:15.931Z,47.73
2018-02-09T12:32:42.699Z,49.50
2018-02-09T12:35:09.445Z,50.70
2018-02-09T12:37:36.157Z,51.33
2018-02-09T12:40:02.897Z,47.20
2018-02-09T12:42:29.622Z,50.03
2018-02-09T12:44:56.331Z,49.20
2018-02-09T12:47:23.073Z,48.53
2018-02-09T12:49:49.794Z,51.07
2018-02-09T12:52:16.531Z,49.60
2018-02-09T12:54:43.266Z,50.20
2018-02-09T12:57:10.005Z,49.23
2018-02-09T12:59:36.752Z,47.40
2018-02-09T13:02:03.481Z,47.90
2018-02-09T13:04:30.309Z,46.20
2018-02-09T13:06:57.041Z,49.80
2018-02-09T13:09:23.797Z,48.93
2018-02-09T13:11:50.527Z,47.63
2018-02-09T13:14:23.189Z,50.90
2018-02-09T13:16:49.918Z,50.67
2018-02-09T13:19:16.636Z,45.47
2018-02-09T13:21:43.349Z,51.67
2018-02-09T13:24:15.935Z,49.43
2018-02-09T13:26:42.664Z,51.73
2018-02-09T13:29:09.465Z,51.77
2018-02-09T13:31:36.249Z,51.10
2018-02-09T13:34:03.002Z,48.60
2018-02-09T13:36:35.545Z,49.77
2018-02-09T13:39:02.290Z,47.50
2018-02-09T13:41:29.024Z,49.30
2018-02-09T13:43:55.741Z,50.03
2018-02-09T13:46:22.533Z,51.77
2018-02-09T13:48:49.304Z,50.17
2018-02-09T13:51:16.018Z,52.27
2018-02-09T13:53:42.753Z,55.97
2018-02-09T13:56:09.506Z,55.23
2018-02-09T13:58:36.229Z,53.60
2018-02-09T14:01:03.032Z,51.67
2018-02-09T14:03:29.789Z,55.27
2018-02-09T14:05:56.509Z,55.67
2018-02-09T14:08:23.237Z,52.43
2018-02-09T14:10:49.963Z,50.20
2018-02-09T14:13:16.693Z,49.23
2018-02-09T14:15:43.433Z,51.60
2018-02-09T14:18:10.168Z,51.83
2018-02-09T14:20:36.878Z,52.67
2018-02-09T14:23:03.628Z,50.30
2018-02-09T14:25:30.329Z,49.10
2018-02-09T14:27:57.034Z,53.10
2018-02-09T14:30:23.782Z,52.47
2018-02-09T14:32:50.500Z,51.80
2018-02-09T14:35:17.219Z,52.30
2018-02-09T14:37:44.041Z,52.83
2018-02-09T14:40:10.717Z,53.33
2018-02-09T14:42:37.469Z,49.87
2018-02-09T14:45:04.267Z,51.47
2018-02-09T14:47:30.961Z,50.37
2018-02-09T14:49:57.733Z,52.53
2018-02-09T14:52:24.437Z,56.10
2018-02-09T14:54:51.170Z,51.17
2018-02-09T14:57:17.938Z,51.57
2018-02-09T14:59:44.692Z,49.57
2018-02-09T15:02:11.430Z,49.50
2018-02-09T15:04:38.170Z,54.17
2018-02-09T15:07:04.903Z,52.17
2018-02-09T15:09:31.696Z,53.63
2018-02-09T15:11:58.412Z,53.07
2018-02-09T15:14:25.137Z,53.80
2018-02-09T15:16:51.860Z,51.97
2018-02-09T15:19:18.585Z,50.17
2018-02-09T15:21:45.316Z,56.17
2018-02-09T15:24:12.029Z,54.03
2018-02-09T15:26:39.262Z,53.50
2018-02-09T15:29:06.002Z,54.20
2018-02-09T15:31:32.729Z,52.27
2018-02-09T15:33:59.509Z,55.00
2018-02-09T15:36:26.295Z,53.00
2018-02-09T15:38:53.037Z,51.77
2018-02-09T15:41:19.768Z,53.43
2018-02-09T15:43:46.544Z,53.67
2018-02-09T15:46:13.255Z,53.97
2018-02-09T15:48:39.984Z,51.80
2018-02-09T15:51:06.735Z,51.57
2018-02-09T15:53:33.464Z,50.73
2018-02-09T15:56:00.211Z,54.43
2018-02-09T15:58:26.933Z,52.57
2018-02-09T16:00:53.636Z,51.00
2018-02-09T16:03:20.437Z,52.73
2018-02-09T16:05:47.120Z,56.00
2018-02-09T16:08:13.849Z,55.00
2018-02-09T16:10:40.580Z,52.10
2018-02-09T16:13:07.311Z,49.13
2018-02-09T16:15:34.058Z,56.33
2018-02-09T16:18:00.789Z,51.40
2018-02-09T16:20:27.492Z,56.93
2018-02-09T16:22:54.218Z,53.47
2018-02-09T16:25:20.947Z,53.97
2018-02-09T16:27:47.707Z,54.70
2018-02-09T16:30:14.445Z,52.67
2018-02-09T16:32:41.189Z,53.60
2018-02-09T16:35:07.926Z,53.67
2018-02-09T16:37:34.661Z,52.97
2018-02-09T16:40:01.416Z,53.10
2018-02-09T16:42:28.127Z,53.43
2018-02-09T16:44:54.886Z,50.60
2018-02-09T16:47:21.607Z,51.83
2018-02-09T16:49:48.400Z,51.77
2018-02-09T16:52:15.174Z,51.17
2018-02-09T16:54:41.937Z,51.00
2018-02-09T16:57:08.679Z,51.97
2018-02-09T16:59:35.392Z,51.97
2018-02-09T17:02:02.103Z,53.53
2018-02-09T17:04:28.846Z,50.90
2018-02-09T17:06:55.590Z,50.50
2018-02-09T17:09:22.329Z,55.17
2018-02-09T17:11:49.081Z,57.20
2018-02-09T17:14:15.791Z,58.40
2018-02-09T17:16:42.572Z,55.60
2018-02-09T17:19:09.324Z,61.50
2018-02-09T17:21:36.135Z,55.40
2018-02-09T17:24:02.848Z,56.63
2018-02-09T17:26:29.564Z,55.50
2018-02-09T17:28:56.298Z,55.97
2018-02-09T17:31:23.006Z,56.03
2018-02-09T17:33:49.751Z,56.47
2018-02-09T17:36:16.497Z,52.10
2018-02-09T17:38:43.230Z,50.90
2018-02-09T17:41:09.976Z,57.67
2018-02-09T17:43:36.779Z,53.80
2018-02-09T17:46:03.575Z,55.20
2018-02-09T17:48:30.299Z,53.70
2018-02-09T17:50:57.058Z,51.50
2018-02-09T17:53:23.800Z,53.97
2018-02-09T17:55:50.501Z,55.83
2018-02-09T17:58:17.230Z,53.67
2018-02-09T18:00:44.008Z,55.57
2018-02-09T18:03:10.752Z,55.53
2018-02-09T18:05:37.594Z,56.00
2018-02-09T18:08:04.331Z,56.03
2018-02-09T18:10:31.078Z,57.30
2018-02-09T18:12:57.805Z,54.80
2018-02-09T18:15:24.534Z,54.73
2018-02-09T18:17:51.286Z,54.70
2018-02-09T18:20:17.988Z,59.83
2018-02-09T18:22:44.841Z,57.07
2018-02-09T18:25:11.552Z,59.40
2018-02-09T18:27:38.349Z,54.80
2018-02-09T18:30:05.086Z,56.17
2018-02-09T18:32:31.827Z,56.70
2018-02-09T18:34:58.594Z,62.37
2018-02-09T18:37:25.390Z,58.37
2018-02-09T18:39:52.116Z,56.37
2018-02-09T18:42:18.889Z,59.30
2018-02-09T18:44:45.608Z,53.97
2018-02-09T18:47:12.363Z,54.70
2018-02-09T18:49:39.142Z,53.30
2018-02-09T18:52:05.853Z,58.13
2018-02-09T18:54:32.638Z,52.20
2018-02-09T18:56:59.399Z,59.33
2018-02-09T18:59:26.168Z,58.50
2018-02-09T19:01:52.897Z,60.13
2018-02-09T19:04:19.654Z,57.30
2018-02-09T19:06:46.408Z,55.90
2018-02-09T19:09:13.138Z,58.37
2018-02-09T19:11:39.922Z,57.47
2018-02-09T19:14:06.727Z,59.23
2018-02-09T19:16:33.469Z,60.10
2018-02-09T19:19:00.197Z,59.53
2018-02-09T19:21:26.941Z,59.43
2018-02-09T19:23:53.752Z,58.70
2018-02-09T19:26:20.612Z,58.83
2018-02-09T19:28:47.398Z,59.17
2018-02-09T19:31:14.180Z,66.73
2018-02-09T19:33:41.057Z,59.87
2018-02-09T19:36:07.881Z,60.20
2018-02-09T19:38:34.616Z,66.47
2018-02-09T19:41:01.385Z,64.63
2018-02-09T19:43:28.265Z,67.03
2018-02-09T19:45:55.002Z,60.07
2018-02-09T19:48:21.858Z,60.30
2018-02-09T19:50:48.622Z,64.80
2018-02-09T19:53:15.371Z,63.10
2018-02-09T19:55:42.220Z,65.87
2018-02-09T19:58:09.013Z,67.00
2018-02-09T20:00:35.758Z,64.20
2018-02-09T20:03:02.569Z,63.60
2018-02-09T20:05:29.324Z,66.87
2018-02-09T20:08:13.367Z,62.93
2018-02-09T20:10:40.185Z,62.43
2018-02-09T20:13:06.987Z,64.07
2018-02-09T20:16:02.178Z,69.03
2018-02-09T20:18:28.961Z,67.97
2018-02-09T20:20:55.745Z,67.67
2018-02-09T20:23:22.503Z,70.00
2018-02-09T20:25:49.257Z,69.60
2018-02-09T20:28:16.037Z,68.97
2018-02-09T20:30:42.805Z,65.90
2018-02-09T20:33:09.570Z,65.80
2018-02-09T20:35:36.365Z,66.40
2018-02-09T20:38:03.163Z,64.13
2018-02-09T20:40:29.973Z,66.50
2018-02-09T20:42:56.734Z,68.60
2018-02-09T20:45:23.465Z,61.70
2018-02-09T20:47:50.187Z,65.13
2018-02-09T20:50:16.916Z,66.30
2018-02-09T20:52:43.735Z,67.40
2018-02-09T20:55:10.499Z,71.00
2018-02-09T20:57:37.218Z,69.07
2018-02-09T21:00:03.981Z,76.03
2018-02-09T21:02:30.750Z,73.63
2018-02-09T21:04:57.482Z,69.40
2018-02-09T21:07:24.242Z,68.07
2018-02-09T21:09:51.007Z,71.20
2018-02-09T21:12:17.737Z,66.70
2018-02-09T21:14:44.469Z,72.53
2018-02-09T21:17:11.202Z,67.60
2018-02-09T21:19:37.951Z,64.40
2018-02-09T21:22:04.700Z,72.40
2018-02-09T21:24:31.409Z,69.90
2018-02-09T21:26:58.187Z,67.17
2018-02-09T21:29:24.918Z,70.80
2018-02-09T21:31:51.720Z,73.00
2018-02-09T21:34:18.454Z,64.37
2018-02-09T21:36:45.179Z,69.60
2018-02-09T21:39:11.941Z,69.00
2018-02-09T21:41:38.680Z,66.27
2018-02-09T21:44:10.558Z,69.50
2018-02-09T21:46:37.315Z,65.90
2018-02-09T21:49:04.042Z,66.33
2018-02-09T21:51:30.786Z,67.50
2018-02-09T21:53:57.548Z,60.87
2018-02-09T21:56:29.627Z,60.63
2018-02-09T21:58:56.389Z,67.67
2018-02-09T22:01:23.165Z,64.03
2018-02-09T22:03:49.906Z,62.10
2018-02-09T22:06:16.677Z,68.97
2018-02-09T22:08:43.451Z,62.83
2018-02-09T22:11:10.212Z,62.00
2018-02-09T22:13:36.963Z,65.83
2018-02-09T22:16:08.871Z,63.90
2018-02-09T22:18:37.559Z,68.40
2018-02-09T22:21:04.463Z,64.80
2018-02-09T22:23:31.919Z,63.50
2018-02-09T22:25:58.889Z,70.00
2018-02-09T22:28:26.076Z,64.27
2018-02-09T22:30:53.141Z,69.90
2018-02-09T22:33:19.975Z,66.90
2018-02-09T22:35:46.861Z,68.57
2018-02-09T22:38:13.950Z,66.73
2018-02-09T22:40:41.158Z,66.87
2018-02-09T22:43:08.296Z,69.43
2018-02-09T22:45:35.070Z,74.33
2018-02-09T22:48:02.190Z,69.50
2018-02-09T22:50:28.951Z,69.37
2018-02-09T22:52:55.703Z,71.20
2018-02-09T22:55:22.443Z,70.37
2018-02-09T22:57:49.184Z,67.33
2018-02-09T23:00:15.922Z,68.60
2018-02-09T23:02:42.666Z,62.90
2018-02-09T23:05:09.483Z,71.87
2018-02-09T23:07:36.240Z,67.43
2018-02-09T23:10:02.993Z,69.53
2018-02-09T23:12:29.757Z,66.27
2018-02-09T23:14:56.631Z,73.20
2018-02-09T23:17:23.456Z,65.93
2018-02-09T23:19:50.202Z,69.33
2018-02-09T23:22:16.923Z,73.07
2018-02-09T23:24:43.672Z,70.77
2018-02-09T23:27:10.405Z,68.63
2018-02-09T23:29:37.151Z,71.43
2018-02-09T23:32:03.899Z,74.20
2018-02-09T23:34:30.639Z,72.97
2018-02-09T23:36:57.379Z,79.63
2018-02-09T23:39:24.114Z,78.77
2018-02-09T23:41:50.819Z,74.53
2018-02-09T23:44:17.562Z,83.63
2018-02-09T23:46:45.236Z,80.13
2018-02-09T23:49:11.965Z,87.23
2018-02-09T23:51:38.725Z,80.13
2018-02-09T23:54:05.430Z,82.30
2018-02-09T23:56:32.171Z,78.23
2018-02-09T23:58:58.904Z,80.90
